Página principal
METAR-TAF:

METAR-TAF

Aeroportos :

Hagåtña, Guam, Estados Unidos

latitude: 13-29N, longitude: 144-48E, altura: 91 m

Observação actual do tempo

O boletim foi feito há 30 minutos, às 15:54 UTC
Vento 9 kt de nordeste
Temperatura 25°C
Humidade 83%
Pressão 1016 hPa
Visibilidade: 16.1 km
Céu limpo

METAR: PGUM 171554Z 05009KT 10SM CLR 25/22 A3000 RMK AO2 SLP151 T02500217

Hora: 02:24 (16:24 UTC)

Previsão

O boletim foi feito há 4 horas e 49 minutos, às 11:35 UTC
Previsão válida de 17 às 12 UTC a 18 às 18 UTC
Vento 11 kt de nordeste
Visibilidade: 10 km
Poucas nuvensa uma altura de 2500 ft
Poucas nuvensa uma altura de 5000 ft
A partir de 17 às 2300 UTC
Vento 18 kt de nordeste
Visibilidade: 10 km
Nuvens dispersasa uma altura de 2500 ft
Nuvens dispersasa uma altura de 5000 ft
aguaceiros nas vizinhanças

TAF: PGUM 171135Z 1712/1818 05011KT P6SM FEW025 FEW050 FM172300 05018KT P6SM VCSH SCT025 SCT050

Observações e previsões do tempo de mais de 4000 aeroportos (mensagens METAR e TAF).

As estações disponíveis são os pontos amarelos e vermelhos sobre o mapa.

Mova o rato sobre o mapa para ver o nome da estação.

Depois clique no ponto para visualizar as observações e previsões meteorológicas.

Para alterar o mapa : clique nos botões verdes com uma cruz preta para aumentar o zoom; no botão verde com uma pitada de zoom; ou nas setas verdes para mapas adjacentes.


METAR-TAF: